KPAE

Snohomish County (Paine Field) Airport

Everett, Washington, USA
KPAE 210535Z 2106/2206 18012G22KT P6SM SCT045 BKN060 OVC090 FM210800 17015G23KT P6SM -RA SCT035 BKN050 OVC070 FM211100 21011G20KT P6SM -SHRA BKN020 BKN040 FM211700 28008KT P6SM VCSH SCT030 BKN040 FM212100 31009KT P6SM VCSH SCT040 FM220000 32010KT P6SM SCT200
Issued Valid From Valid To
Apr-21 @ 05:35 UTC
(4 hours ago)
Apr-21 @ 06:00 UTC
(4 hours ago)
Apr-22 @ 06:00 UTC
(in 20 hours)
Expired Click to View Apr-21 @ 06:00 to Apr-21 @ 08:00
KPAE 210535Z 2106/2206 18012G22KT P6SM SCT045 BKN060 OVC090
Wind Visibility Clouds
180° at 12 knots
 Gusting to 22 knots
Greater than 6 miles
  • Scattered at 4,500' AGL
  • Broken at 6,000' AGL
  • Overcast at 9,000' AGL
From Apr-21 @ 08:00 to Apr-21 @ 11:00
FM210800 17015G23KT P6SM -RA SCT035 BKN050 OVC070
Wind Visibility Clouds Conditions
170° at 15 knots
 Gusting to 23 knots
Greater than 6 miles
  • Scattered at 3,500' AGL
  • Broken at 5,000' AGL
  • Overcast at 7,000' AGL
  • Light Rain
From Apr-21 @ 11:00 to Apr-21 @ 17:00
FM211100 21011G20KT P6SM -SHRA BKN020 BKN040
Wind Visibility Clouds Conditions
210° at 11 knots
 Gusting to 20 knots
Greater than 6 miles
  • Broken at 2,000' AGL
  • Broken at 4,000' AGL
  • Light Rain
From Apr-21 @ 17:00 to Apr-21 @ 21:00
FM211700 28008KT P6SM VCSH SCT030 BKN040
Wind Visibility Clouds
280° at 8 knots Greater than 6 miles
  • Scattered at 3,000' AGL
  • Broken at 4,000' AGL
From Apr-21 @ 21:00 to Apr-22 @ 00:00
FM212100 31009KT P6SM VCSH SCT040
Wind Visibility Clouds
310° at 9 knots Greater than 6 miles
  • Scattered at 4,000' AGL
From Apr-22 @ 00:00 to Apr-22 @ 06:00
FM220000 32010KT P6SM SCT200
Wind Visibility Clouds
320° at 10 knots Greater than 6 miles
  • Scattered at 20,000' AGL
KPAE 210535Z 2106/2206 18012G22KT P6SM SCT045 BKN060 OVC090 FM210800 17015G23KT P6SM -RA SCT035 BKN050 OVC070 FM211100 21011G20KT P6SM -SHRA BKN020 BKN040 FM211700 28008KT P6SM VCSH SCT030 BKN040 FM212100 31009KT P6SM VCSH SCT040 FM220000 32010KT P6SM SCT200
Issued Apr-21 @ 05:35 UTC
(4 hours ago)
Valid From Apr-21 @ 06:00 UTC
(4 hours ago)
Valid To Apr-22 @ 06:00 UTC
(in 20 hours)
Apr-21 @ 06:00 - Apr-21 @ 08:00
Wind Visibility
180° at 12 knots
 Gusting to 22 knots
Greater than 6 miles
Clouds
  • Scattered at 4,500' AGL
  • Broken at 6,000' AGL
  • Overcast at 9,000' AGL
From Apr-21 @ 08:00 - Apr-21 @ 11:00
Wind Visibility
170° at 15 knots
 Gusting to 23 knots
Greater than 6 miles
Clouds
  • Scattered at 3,500' AGL
  • Broken at 5,000' AGL
  • Overcast at 7,000' AGL
Conditions
  • Light Rain
From Apr-21 @ 11:00 - Apr-21 @ 17:00
Wind Visibility
210° at 11 knots
 Gusting to 20 knots
Greater than 6 miles
Clouds
  • Broken at 2,000' AGL
  • Broken at 4,000' AGL
Conditions
  • Light Rain
From Apr-21 @ 17:00 - Apr-21 @ 21:00
Wind Visibility
280° at 8 knots Greater than 6 miles
Clouds
  • Scattered at 3,000' AGL
  • Broken at 4,000' AGL
From Apr-21 @ 21:00 - Apr-22 @ 00:00
Wind Visibility
310° at 9 knots Greater than 6 miles
Clouds
  • Scattered at 4,000' AGL
From Apr-22 @ 00:00 - Apr-22 @ 06:00
Wind Visibility
320° at 10 knots Greater than 6 miles
Clouds
  • Scattered at 20,000' AGL